Reykjavik, Iceland
Current Conditions -  °F | °C
As of 12:00 PM on Sunday 21 Dec 2014 (Local Time) from BIRK Reporting Station
Scattered Clouds Scattered Clouds  
Wind Chill: 21°   Ceiling: Unl
Heat Index: 28°   Visibility: 6mi
Dew Point: 25°   Wind: 7mph
Humidity: 86%   Direction: 130°SE
Pressure: 28.85"   Gusts: NA
Location:  64.14°N, 21.92°W
Report Text: BIRK 211200Z 13006KT 9999 FEW038CB SCT100 M02/M04 Q0977 R19/920195
Loading
Personal Weather Stations






























Interactive Weather Map New forecast layout! Learn more

10-Day Weather Forecast

Advertisements
Track Severe Weather on mobile